sensor_id;sensor_type;location;lat;lon;timestamp;pressure;altitude;pressure_sealevel;temperature;humidity
11678;BME280;5895;41.950;24.372;2022-07-30T00:01:31;87188.50;;;18.01;58.61
11678;BME280;5895;41.950;24.372;2022-07-30T00:04:00;87187.72;;;18.01;59.02
11678;BME280;5895;41.950;24.372;2022-07-30T00:06:27;87187.19;;;18.04;58.34
11678;BME280;5895;41.950;24.372;2022-07-30T00:08:55;87183.53;;;18.05;59.07
11678;BME280;5895;41.950;24.372;2022-07-30T00:11:24;87185.38;;;18.04;58.84
11678;BME280;5895;41.950;24.372;2022-07-30T00:13:52;87173.56;;;18.02;59.04
11678;BME280;5895;41.950;24.372;2022-07-30T00:16:19;87181.16;;;18.03;58.48
11678;BME280;5895;41.950;24.372;2022-07-30T00:18:47;87184.06;;;18.02;58.61
11678;BME280;5895;41.950;24.372;2022-07-30T00:21:14;87176.16;;;17.96;58.47
11678;BME280;5895;41.950;24.372;2022-07-30T00:23:42;87185.06;;;17.95;58.84
11678;BME280;5895;41.950;24.372;2022-07-30T00:26:09;87181.41;;;17.96;58.61
11678;BME280;5895;41.950;24.372;2022-07-30T00:28:38;87176.97;;;17.97;59.12
11678;BME280;5895;41.950;24.372;2022-07-30T00:31:05;87175.13;;;17.97;58.78
11678;BME280;5895;41.950;24.372;2022-07-30T00:33:33;87178.00;;;17.96;59.04
11678;BME280;5895;41.950;24.372;2022-07-30T00:36:00;87176.69;;;17.93;58.49
11678;BME280;5895;41.950;24.372;2022-07-30T00:38:27;87172.75;;;17.91;58.93
11678;BME280;5895;41.950;24.372;2022-07-30T00:40:55;87172.47;;;17.87;59.07
11678;BME280;5895;41.950;24.372;2022-07-30T00:43:22;87163.00;;;17.81;58.64
11678;BME280;5895;41.950;24.372;2022-07-30T00:45:51;87160.66;;;17.80;58.97
11678;BME280;5895;41.950;24.372;2022-07-30T00:48:19;87161.94;;;17.77;58.91
11678;BME280;5895;41.950;24.372;2022-07-30T00:50:46;87158.53;;;17.77;58.42
11678;BME280;5895;41.950;24.372;2022-07-30T00:53:13;87155.63;;;17.73;58.99
11678;BME280;5895;41.950;24.372;2022-07-30T00:55:41;87153.22;;;17.71;58.78
11678;BME280;5895;41.950;24.372;2022-07-30T00:58:08;87154.78;;;17.67;59.14
11678;BME280;5895;41.950;24.372;2022-07-30T01:00:35;87146.13;;;17.67;59.06
11678;BME280;5895;41.950;24.372;2022-07-30T01:03:04;87149.53;;;17.67;59.02
11678;BME280;5895;41.950;24.372;2022-07-30T01:05:32;87151.16;;;17.68;58.69
11678;BME280;5895;41.950;24.372;2022-07-30T01:07:59;87157.41;;;17.67;58.89
11678;BME280;5895;41.950;24.372;2022-07-30T01:10:27;87150.88;;;17.70;58.98
11678;BME280;5895;41.950;24.372;2022-07-30T01:12:54;87156.13;;;17.70;58.81
11678;BME280;5895;41.950;24.372;2022-07-30T01:15:24;87138.03;;;17.68;58.74
11678;BME280;5895;41.950;24.372;2022-07-30T01:17:53;87141.66;;;17.67;58.33
11678;BME280;5895;41.950;24.372;2022-07-30T01:20:28;87140.88;;;17.67;59.06
11678;BME280;5895;41.950;24.372;2022-07-30T01:23:00;87135.13;;;17.70;59.66
11678;BME280;5895;41.950;24.372;2022-07-30T01:25:59;87139.59;;;17.69;60.88
11678;BME280;5895;41.950;24.372;2022-07-30T01:28:31;87135.38;;;17.63;58.74
11678;BME280;5895;41.950;24.372;2022-07-30T01:31:00;87138.25;;;17.62;58.38
11678;BME280;5895;41.950;24.372;2022-07-30T01:33:30;87132.75;;;17.58;58.45
11678;BME280;5895;41.950;24.372;2022-07-30T01:35:59;87136.41;;;17.57;58.55
11678;BME280;5895;41.950;24.372;2022-07-30T01:38:28;87137.72;;;17.55;58.86
11678;BME280;5895;41.950;24.372;2022-07-30T01:40:58;87138.75;;;17.49;59.34
11678;BME280;5895;41.950;24.372;2022-07-30T01:43:27;87137.19;;;17.53;58.64
11678;BME280;5895;41.950;24.372;2022-07-30T01:45:55;87136.66;;;17.51;58.85
11678;BME280;5895;41.950;24.372;2022-07-30T01:48:26;87134.28;;;17.49;58.78
11678;BME280;5895;41.950;24.372;2022-07-30T01:50:55;87136.38;;;17.47;58.64
11678;BME280;5895;41.950;24.372;2022-07-30T01:53:26;87133.75;;;17.42;59.00
11678;BME280;5895;41.950;24.372;2022-07-30T01:55:55;87120.91;;;17.40;59.00
11678;BME280;5895;41.950;24.372;2022-07-30T01:58:28;87128.78;;;17.40;59.37
11678;BME280;5895;41.950;24.372;2022-07-30T02:00:57;87118.50;;;17.39;59.00
11678;BME280;5895;41.950;24.372;2022-07-30T02:03:25;87120.91;;;17.40;58.54
11678;BME280;5895;41.950;24.372;2022-07-30T02:05:56;87120.91;;;17.40;59.59
11678;BME280;5895;41.950;24.372;2022-07-30T02:08:32;87129.28;;;17.42;59.39
11678;BME280;5895;41.950;24.372;2022-07-30T02:11:05;87127.19;;;17.44;59.32
11678;BME280;5895;41.950;24.372;2022-07-30T02:13:39;87123.25;;;17.42;59.46
11678;BME280;5895;41.950;24.372;2022-07-30T02:16:12;87125.06;;;17.36;59.43
11678;BME280;5895;41.950;24.372;2022-07-30T02:18:47;87130.31;;;17.31;59.97
11678;BME280;5895;41.950;24.372;2022-07-30T02:21:22;87123.47;;;17.30;59.10
11678;BME280;5895;41.950;24.372;2022-07-30T02:23:51;87122.94;;;17.28;58.82
11678;BME280;5895;41.950;24.372;2022-07-30T02:26:22;87114.53;;;17.26;58.97
11678;BME280;5895;41.950;24.372;2022-07-30T02:28:55;87118.47;;;17.24;59.12
11678;BME280;5895;41.950;24.372;2022-07-30T02:31:24;87122.94;;;17.23;58.96
11678;BME280;5895;41.950;24.372;2022-07-30T02:33:56;87127.91;;;17.19;59.58
11678;BME280;5895;41.950;24.372;2022-07-30T02:36:26;87116.84;;;17.07;59.23
11678;BME280;5895;41.950;24.372;2022-07-30T02:38:55;87118.91;;;17.05;59.55
11678;BME280;5895;41.950;24.372;2022-07-30T02:41:24;87120.22;;;17.03;59.52
11678;BME280;5895;41.950;24.372;2022-07-30T02:43:55;87115.00;;;17.03;59.32
11678;BME280;5895;41.950;24.372;2022-07-30T02:46:24;87115.50;;;17.05;59.19
11678;BME280;5895;41.950;24.372;2022-07-30T02:48:52;87107.13;;;17.03;59.37
11678;BME280;5895;41.950;24.372;2022-07-30T02:51:21;87111.84;;;17.01;59.74
11678;BME280;5895;41.950;24.372;2022-07-30T02:53:51;87110.00;;;17.01;59.16
11678;BME280;5895;41.950;24.372;2022-07-30T02:56:20;87117.09;;;17.01;59.38
11678;BME280;5895;41.950;24.372;2022-07-30T02:58:49;87105.00;;;17.00;59.50
11678;BME280;5895;41.950;24.372;2022-07-30T03:01:22;87106.59;;;17.01;60.16
11678;BME280;5895;41.950;24.372;2022-07-30T03:03:50;87107.63;;;17.00;59.48
11678;BME280;5895;41.950;24.372;2022-07-30T03:06:19;87105.00;;;17.00;59.52
11678;BME280;5895;41.950;24.372;2022-07-30T03:08:48;87093.47;;;16.96;59.33
11678;BME280;5895;41.950;24.372;2022-07-30T03:11:18;87099.50;;;16.96;60.13
11678;BME280;5895;41.950;24.372;2022-07-30T03:13:45;87098.94;;;16.89;59.80
11678;BME280;5895;41.950;24.372;2022-07-30T03:16:13;87093.13;;;16.82;59.65
11678;BME280;5895;41.950;24.372;2022-07-30T03:18:46;87095.22;;;16.75;60.24
11678;BME280;5895;41.950;24.372;2022-07-30T03:21:14;87098.31;;;16.72;59.80
11678;BME280;5895;41.950;24.372;2022-07-30T03:23:43;87098.03;;;16.68;59.75
11678;BME280;5895;41.950;24.372;2022-07-30T03:26:12;87101.41;;;16.63;59.84
11678;BME280;5895;41.950;24.372;2022-07-30T03:28:42;87102.19;;;16.64;60.18
11678;BME280;5895;41.950;24.372;2022-07-30T03:31:10;87100.09;;;16.66;60.05
11678;BME280;5895;41.950;24.372;2022-07-30T03:33:39;87110.56;;;16.66;60.08
11678;BME280;5895;41.950;24.372;2022-07-30T03:36:11;87109.00;;;16.65;61.36
11678;BME280;5895;41.950;24.372;2022-07-30T03:38:40;87109.00;;;16.65;60.19
11678;BME280;5895;41.950;24.372;2022-07-30T03:41:09;87106.41;;;16.70;59.95
11678;BME280;5895;41.950;24.372;2022-07-30T03:43:38;87108.03;;;16.71;60.07
11678;BME280;5895;41.950;24.372;2022-07-30T03:46:06;87104.06;;;16.69;60.04
11678;BME280;5895;41.950;24.372;2022-07-30T03:48:35;87107.44;;;16.64;60.15
11678;BME280;5895;41.950;24.372;2022-07-30T03:51:07;87103.50;;;16.61;60.37
11678;BME280;5895;41.950;24.372;2022-07-30T03:53:36;87106.88;;;16.57;60.33
11678;BME280;5895;41.950;24.372;2022-07-30T03:56:04;87101.13;;;16.60;60.55
11678;BME280;5895;41.950;24.372;2022-07-30T03:58:32;87104.28;;;16.62;60.44
11678;BME280;5895;41.950;24.372;2022-07-30T04:00:59;87103.50;;;16.61;60.47
11678;BME280;5895;41.950;24.372;2022-07-30T04:03:29;87109.00;;;16.65;60.33
11678;BME280;5895;41.950;24.372;2022-07-30T04:05:57;87106.13;;;16.66;60.34
11678;BME280;5895;41.950;24.372;2022-07-30T04:08:26;87112.19;;;16.67;60.59
11678;BME280;5895;41.950;24.372;2022-07-30T04:10:54;87107.22;;;16.71;60.40
11678;BME280;5895;41.950;24.372;2022-07-30T04:13:21;87112.47;;;16.71;60.66
11678;BME280;5895;41.950;24.372;2022-07-30T04:15:53;87110.63;;;16.71;60.71
11678;BME280;5895;41.950;24.372;2022-07-30T04:18:23;87115.91;;;16.76;60.50
11678;BME280;5895;41.950;24.372;2022-07-30T04:20:53;87114.34;;;16.75;60.52
11678;BME280;5895;41.950;24.372;2022-07-30T04:23:21;87124.22;;;16.68;60.63
11678;BME280;5895;41.950;24.372;2022-07-30T04:25:50;87129.47;;;16.68;61.39
11678;BME280;5895;41.950;24.372;2022-07-30T04:28:18;87122.09;;;16.65;60.43
11678;BME280;5895;41.950;24.372;2022-07-30T04:30:47;87123.16;;;16.64;61.02
11678;BME280;5895;41.950;24.372;2022-07-30T04:33:14;87126.28;;;16.66;61.13
11678;BME280;5895;41.950;24.372;2022-07-30T04:35:42;87126.28;;;16.66;61.07
11678;BME280;5895;41.950;24.372;2022-07-30T04:38:09;87129.97;;;16.65;60.53
11678;BME280;5895;41.950;24.372;2022-07-30T04:40:39;87136.25;;;16.64;61.20
11678;BME280;5895;41.950;24.372;2022-07-30T04:43:08;87126.81;;;16.63;61.68
11678;BME280;5895;41.950;24.372;2022-07-30T04:45:35;87124.72;;;16.65;61.23
11678;BME280;5895;41.950;24.372;2022-07-30T04:48:03;87126.59;;;16.70;61.03
11678;BME280;5895;41.950;24.372;2022-07-30T04:50:32;87116.13;;;16.70;61.45
11678;BME280;5895;41.950;24.372;2022-07-30T04:53:03;87119.56;;;16.75;61.03
11678;BME280;5895;41.950;24.372;2022-07-30T04:55:33;87119.34;;;16.82;61.34
11678;BME280;5895;41.950;24.372;2022-07-30T04:58:02;87119.09;;;16.88;61.04
11678;BME280;5895;41.950;24.372;2022-07-30T05:00:33;87102.88;;;16.91;62.06
11678;BME280;5895;41.950;24.372;2022-07-30T05:03:03;87116.28;;;17.00;61.40
11678;BME280;5895;41.950;24.372;2022-07-30T05:05:32;87120.00;;;17.09;61.18
11678;BME280;5895;41.950;24.372;2022-07-30T05:08:00;87122.13;;;17.17;60.72
11678;BME280;5895;41.950;24.372;2022-07-30T05:10:29;87117.69;;;17.28;60.37
11678;BME280;5895;41.950;24.372;2022-07-30T05:12:56;87118.28;;;17.40;60.67
11678;BME280;5895;41.950;24.372;2022-07-30T05:15:24;87118.28;;;17.51;60.75
11678;BME280;5895;41.950;24.372;2022-07-30T05:17:53;87115.69;;;17.61;61.10
11678;BME280;5895;41.950;24.372;2022-07-30T05:20:21;87113.34;;;17.69;61.47
11678;BME280;5895;41.950;24.372;2022-07-30T05:22:48;87119.44;;;17.80;60.95
11678;BME280;5895;41.950;24.372;2022-07-30T05:25:16;87109.19;;;17.89;60.85
11678;BME280;5895;41.950;24.372;2022-07-30T05:27:44;87112.63;;;18.00;60.26
11678;BME280;5895;41.950;24.372;2022-07-30T05:30:12;87112.63;;;18.15;60.26
11678;BME280;5895;41.950;24.372;2022-07-30T05:32:39;87111.59;;;18.26;60.56
11678;BME280;5895;41.950;24.372;2022-07-30T05:35:10;87117.88;;;18.40;61.36
11678;BME280;5895;41.950;24.372;2022-07-30T05:37:38;87111.03;;;18.55;60.84
11678;BME280;5895;41.950;24.372;2022-07-30T05:40:06;87114.19;;;18.72;60.14
11678;BME280;5895;41.950;24.372;2022-07-30T05:42:34;87121.25;;;18.87;59.33
11678;BME280;5895;41.950;24.372;2022-07-30T05:45:02;87119.13;;;18.99;59.54
11678;BME280;5895;41.950;24.372;2022-07-30T05:47:29;87108.59;;;19.09;59.33
11678;BME280;5895;41.950;24.372;2022-07-30T05:49:57;87105.66;;;19.21;59.44
11678;BME280;5895;41.950;24.372;2022-07-30T05:52:26;87115.34;;;19.31;58.94
11678;BME280;5895;41.950;24.372;2022-07-30T05:54:55;87119.75;;;19.40;58.41
11678;BME280;5895;41.950;24.372;2022-07-30T05:57:22;87114.47;;;19.50;58.07
11678;BME280;5895;41.950;24.372;2022-07-30T05:59:50;87107.34;;;19.61;57.72
11678;BME280;5895;41.950;24.372;2022-07-30T06:02:18;87115.97;;;19.72;57.82
11678;BME280;5895;41.950;24.372;2022-07-30T06:04:45;87113.00;;;19.84;57.23
11678;BME280;5895;41.950;24.372;2022-07-30T06:07:13;87118.22;;;19.94;57.62
11678;BME280;5895;41.950;24.372;2022-07-30T06:09:42;87111.53;;;20.06;57.96
11678;BME280;5895;41.950;24.372;2022-07-30T06:12:10;87112.53;;;20.16;57.40
11678;BME280;5895;41.950;24.372;2022-07-30T06:14:38;87118.25;;;20.28;57.22
11678;BME280;5895;41.950;24.372;2022-07-30T06:17:06;87115.28;;;20.34;56.42
11678;BME280;5895;41.950;24.372;2022-07-30T06:19:33;87114.97;;;20.46;55.55
11678;BME280;5895;41.950;24.372;2022-07-30T06:22:01;87112.75;;;20.58;54.95
11678;BME280;5895;41.950;24.372;2022-07-30T06:24:29;87106.91;;;20.67;54.38
11678;BME280;5895;41.950;24.372;2022-07-30T06:26:59;87110.72;;;20.79;54.05
11678;BME280;5895;41.950;24.372;2022-07-30T06:29:27;87108.78;;;20.90;53.46
11678;BME280;5895;41.950;24.372;2022-07-30T06:31:55;87113.97;;;21.00;52.97
11678;BME280;5895;41.950;24.372;2022-07-30T06:34:22;87113.88;;;21.10;52.74
11678;BME280;5895;41.950;24.372;2022-07-30T06:36:50;87110.59;;;21.19;52.70
11678;BME280;5895;41.950;24.372;2022-07-30T06:39:18;87112.09;;;21.30;52.43
11678;BME280;5895;41.950;24.372;2022-07-30T06:41:46;87120.97;;;21.39;52.63
11678;BME280;5895;41.950;24.372;2022-07-30T06:44:15;87115.28;;;21.51;52.62
11678;BME280;5895;41.950;24.372;2022-07-30T06:46:43;87109.91;;;21.61;52.71
11678;BME280;5895;41.950;24.372;2022-07-30T06:49:11;87114.75;;;21.73;52.66
11678;BME280;5895;41.950;24.372;2022-07-30T06:51:39;87117.25;;;21.83;52.69
11678;BME280;5895;41.950;24.372;2022-07-30T06:54:06;87100.78;;;21.91;52.28
11678;BME280;5895;41.950;24.372;2022-07-30T06:56:34;87109.66;;;22.00;52.40
11678;BME280;5895;41.950;24.372;2022-07-30T06:59:02;87104.78;;;22.07;52.36
11678;BME280;5895;41.950;24.372;2022-07-30T07:01:31;87097.91;;;22.11;52.22
11678;BME280;5895;41.950;24.372;2022-07-30T07:03:59;87094.91;;;22.18;52.79
11678;BME280;5895;41.950;24.372;2022-07-30T07:06:26;87106.38;;;22.27;52.04
11678;BME280;5895;41.950;24.372;2022-07-30T07:08:54;87101.53;;;22.34;51.77
11678;BME280;5895;41.950;24.372;2022-07-30T07:11:22;87107.53;;;22.40;51.97
11678;BME280;5895;41.950;24.372;2022-07-30T07:13:49;87098.38;;;22.51;52.11
11678;BME280;5895;41.950;24.372;2022-07-30T07:16:17;87093.69;;;22.62;52.18
11678;BME280;5895;41.950;24.372;2022-07-30T07:18:51;87108.59;;;22.71;52.53
11678;BME280;5895;41.950;24.372;2022-07-30T07:21:19;87100.03;;;22.80;53.30
11678;BME280;5895;41.950;24.372;2022-07-30T07:23:47;87100.97;;;22.84;53.00
11678;BME280;5895;41.950;24.372;2022-07-30T07:26:15;87096.16;;;22.91;53.47
11678;BME280;5895;41.950;24.372;2022-07-30T07:28:43;87097.63;;;22.97;53.39
11678;BME280;5895;41.950;24.372;2022-07-30T07:31:11;87103.81;;;23.06;52.68
11678;BME280;5895;41.950;24.372;2022-07-30T07:33:38;87100.50;;;23.14;51.13
11678;BME280;5895;41.950;24.372;2022-07-30T07:36:09;87104.25;;;23.27;50.82
11678;BME280;5895;41.950;24.372;2022-07-30T07:38:36;87103.28;;;23.37;51.31
11678;BME280;5895;41.950;24.372;2022-07-30T07:41:04;87100.03;;;23.40;52.39
11678;BME280;5895;41.950;24.372;2022-07-30T07:43:32;87104.53;;;23.39;52.39
11678;BME280;5895;41.950;24.372;2022-07-30T07:46:00;87095.72;;;23.44;52.81
11678;BME280;5895;41.950;24.372;2022-07-30T07:48:27;87098.75;;;23.51;52.08
11678;BME280;5895;41.950;24.372;2022-07-30T07:50:55;87099.75;;;23.55;51.03
11678;BME280;5895;41.950;24.372;2022-07-30T07:53:24;87092.88;;;23.54;50.46
11678;BME280;5895;41.950;24.372;2022-07-30T07:55:52;87096.94;;;23.65;51.15
11678;BME280;5895;41.950;24.372;2022-07-30T07:58:20;87104.69;;;23.75;51.01
11678;BME280;5895;41.950;24.372;2022-07-30T08:00:48;87102.63;;;23.86;51.73
11678;BME280;5895;41.950;24.372;2022-07-30T08:03:15;87103.88;;;24.02;52.17
11678;BME280;5895;41.950;24.372;2022-07-30T08:05:43;87111.69;;;24.21;51.91
11678;BME280;5895;41.950;24.372;2022-07-30T08:08:11;87105.00;;;24.38;51.48
11678;BME280;5895;41.950;24.372;2022-07-30T08:10:40;87110.25;;;24.51;51.46
11678;BME280;5895;41.950;24.372;2022-07-30T08:13:08;87108.63;;;24.64;51.13
11678;BME280;5895;41.950;24.372;2022-07-30T08:15:36;87109.53;;;24.82;51.21
11678;BME280;5895;41.950;24.372;2022-07-30T08:18:04;87109.66;;;24.99;50.87
11678;BME280;5895;41.950;24.372;2022-07-30T08:20:33;87101.16;;;25.11;50.66
11678;BME280;5895;41.950;24.372;2022-07-30T08:23:01;87098.72;;;25.23;50.53
11678;BME280;5895;41.950;24.372;2022-07-30T08:25:29;87100.66;;;25.31;49.83
11678;BME280;5895;41.950;24.372;2022-07-30T08:27:58;87097.56;;;25.38;49.32
11678;BME280;5895;41.950;24.372;2022-07-30T08:30:28;87100.25;;;25.47;49.53
11678;BME280;5895;41.950;24.372;2022-07-30T08:32:56;87097.31;;;25.48;49.41
11678;BME280;5895;41.950;24.372;2022-07-30T08:35:23;87102.78;;;25.52;48.61
11678;BME280;5895;41.950;24.372;2022-07-30T08:37:51;87098.88;;;25.58;49.23
11678;BME280;5895;41.950;24.372;2022-07-30T08:40:19;87096.47;;;25.70;48.45
11678;BME280;5895;41.950;24.372;2022-07-30T08:42:47;87092.69;;;25.71;48.65
11678;BME280;5895;41.950;24.372;2022-07-30T08:45:16;87096.31;;;25.75;48.28
11678;BME280;5895;41.950;24.372;2022-07-30T08:47:45;87092.00;;;25.88;48.72
11678;BME280;5895;41.950;24.372;2022-07-30T08:50:13;87090.78;;;26.03;48.46
11678;BME280;5895;41.950;24.372;2022-07-30T08:52:41;87091.28;;;26.22;48.22
11678;BME280;5895;41.950;24.372;2022-07-30T08:55:09;87087.56;;;26.41;48.26
11678;BME280;5895;41.950;24.372;2022-07-30T08:57:37;87088.16;;;26.37;47.96
11678;BME280;5895;41.950;24.372;2022-07-30T09:00:06;87096.84;;;26.52;47.68
11678;BME280;5895;41.950;24.372;2022-07-30T09:02:35;87097.47;;;26.66;47.58
11678;BME280;5895;41.950;24.372;2022-07-30T09:05:04;87094.31;;;26.81;47.63
11678;BME280;5895;41.950;24.372;2022-07-30T09:07:32;87097.63;;;26.96;47.37
11678;BME280;5895;41.950;24.372;2022-07-30T09:10:00;87094.16;;;27.04;46.98
11678;BME280;5895;41.950;24.372;2022-07-30T09:12:35;87091.19;;;27.14;45.70
11678;BME280;5895;41.950;24.372;2022-07-30T09:15:08;87078.81;;;27.18;46.11
11678;BME280;5895;41.950;24.372;2022-07-30T09:17:49;87088.50;;;27.31;44.48
11678;BME280;5895;41.950;24.372;2022-07-30T09:20:17;87084.53;;;27.46;47.05
11678;BME280;5895;41.950;24.372;2022-07-30T09:22:48;87087.16;;;27.55;46.57
11678;BME280;5895;41.950;24.372;2022-07-30T09:25:34;87085.28;;;27.64;44.79
11678;BME280;5895;41.950;24.372;2022-07-30T09:28:03;87081.19;;;27.75;47.26
11678;BME280;5895;41.950;24.372;2022-07-30T09:30:47;87078.63;;;27.87;44.12
11678;BME280;5895;41.950;24.372;2022-07-30T09:33:30;87081.56;;;27.94;44.93
11678;BME280;5895;41.950;24.372;2022-07-30T09:35:58;87086.53;;;28.05;46.62
11678;BME280;5895;41.950;24.372;2022-07-30T09:38:26;87086.16;;;28.15;46.26
11678;BME280;5895;41.950;24.372;2022-07-30T09:40:56;87082.69;;;28.23;46.22
11678;BME280;5895;41.950;24.372;2022-07-30T09:43:25;87083.28;;;28.29;46.46
11678;BME280;5895;41.950;24.372;2022-07-30T09:45:54;87083.28;;;28.29;46.46
11678;BME280;5895;41.950;24.372;2022-07-30T09:48:26;87081.25;;;28.34;44.81
11678;BME280;5895;41.950;24.372;2022-07-30T09:50:54;87073.75;;;28.49;45.71
11678;BME280;5895;41.950;24.372;2022-07-30T09:53:22;87080.72;;;28.62;45.20
11678;BME280;5895;41.950;24.372;2022-07-30T09:55:51;87079.69;;;28.75;45.01
11678;BME280;5895;41.950;24.372;2022-07-30T09:58:18;87075.53;;;28.86;44.60
11678;BME280;5895;41.950;24.372;2022-07-30T10:00:46;87066.66;;;28.94;45.14
11678;BME280;5895;41.950;24.372;2022-07-30T10:03:15;87072.28;;;29.02;44.39
11678;BME280;5895;41.950;24.372;2022-07-30T10:05:52;87073.44;;;29.13;41.99
11678;BME280;5895;41.950;24.372;2022-07-30T10:08:37;87072.56;;;29.21;41.28
11678;BME280;5895;41.950;24.372;2022-07-30T10:11:09;87060.31;;;29.20;43.11
11678;BME280;5895;41.950;24.372;2022-07-30T10:13:37;87067.47;;;29.28;44.49
11678;BME280;5895;41.950;24.372;2022-07-30T10:16:05;87062.06;;;29.37;44.22
11678;BME280;5895;41.950;24.372;2022-07-30T10:18:33;87060.94;;;29.38;44.03
11678;BME280;5895;41.950;24.372;2022-07-30T10:21:03;87058.84;;;29.43;43.68
11678;BME280;5895;41.950;24.372;2022-07-30T10:23:31;87054.22;;;29.53;44.12
11678;BME280;5895;41.950;24.372;2022-07-30T10:26:01;87053.75;;;29.63;43.95
11678;BME280;5895;41.950;24.372;2022-07-30T10:28:30;87056.00;;;29.73;43.91
11678;BME280;5895;41.950;24.372;2022-07-30T10:30:58;87049.91;;;29.85;43.60
11678;BME280;5895;41.950;24.372;2022-07-30T10:33:26;87051.13;;;29.87;43.31
11678;BME280;5895;41.950;24.372;2022-07-30T10:35:55;87050.47;;;29.90;43.56
11678;BME280;5895;41.950;24.372;2022-07-30T10:38:29;87049.13;;;29.96;40.29
11678;BME280;5895;41.950;24.372;2022-07-30T10:41:03;87041.44;;;29.95;42.87
11678;BME280;5895;41.950;24.372;2022-07-30T10:46:49;87047.63;;;30.20;40.20
11678;BME280;5895;41.950;24.372;2022-07-30T10:49:21;87033.88;;;30.34;43.08
11678;BME280;5895;41.950;24.372;2022-07-30T10:51:51;87031.63;;;30.36;42.64
11678;BME280;5895;41.950;24.372;2022-07-30T10:54:41;87031.72;;;30.51;40.11
11678;BME280;5895;41.950;24.372;2022-07-30T10:57:12;87041.06;;;30.58;42.98
11678;BME280;5895;41.950;24.372;2022-07-30T11:00:08;87040.19;;;30.66;39.41
11678;BME280;5895;41.950;24.372;2022-07-30T11:02:36;87042.75;;;30.62;43.12
11678;BME280;5895;41.950;24.372;2022-07-30T11:05:23;87035.94;;;30.77;39.56
11678;BME280;5895;41.950;24.372;2022-07-30T11:07:53;87037.50;;;30.78;42.92
11678;BME280;5895;41.950;24.372;2022-07-30T11:10:37;87039.75;;;30.76;37.76
11678;BME280;5895;41.950;24.372;2022-07-30T11:13:06;87040.63;;;30.68;43.01
11678;BME280;5895;41.950;24.372;2022-07-30T11:15:55;87039.53;;;30.44;39.08
11678;BME280;5895;41.950;24.372;2022-07-30T11:18:24;87038.44;;;30.45;43.15
11678;BME280;5895;41.950;24.372;2022-07-30T11:21:15;87031.28;;;30.49;39.01
11678;BME280;5895;41.950;24.372;2022-07-30T11:23:43;87030.81;;;30.60;42.72
11678;BME280;5895;41.950;24.372;2022-07-30T11:29:32;87027.88;;;30.89;39.21
11678;BME280;5895;41.950;24.372;2022-07-30T11:32:24;87017.28;;;31.08;38.39
11678;BME280;5895;41.950;24.372;2022-07-30T11:35:11;87019.66;;;31.10;38.18
11678;BME280;5895;41.950;24.372;2022-07-30T11:37:55;87013.16;;;31.11;38.39
11678;BME280;5895;41.950;24.372;2022-07-30T11:40:23;87025.72;;;31.23;42.17
11678;BME280;5895;41.950;24.372;2022-07-30T11:42:51;87009.84;;;31.30;41.70
11678;BME280;5895;41.950;24.372;2022-07-30T11:45:41;87011.50;;;31.34;39.92
11678;BME280;5895;41.950;24.372;2022-07-30T11:48:10;87009.53;;;31.19;41.29
11678;BME280;5895;41.950;24.372;2022-07-30T11:50:39;87009.00;;;31.26;41.82
11678;BME280;5895;41.950;24.372;2022-07-30T11:53:09;87021.75;;;31.45;41.70
11678;BME280;5895;41.950;24.372;2022-07-30T11:55:39;87009.66;;;31.67;40.96
11678;BME280;5895;41.950;24.372;2022-07-30T11:58:08;87002.44;;;31.71;41.03
11678;BME280;5895;41.950;24.372;2022-07-30T12:00:37;86997.97;;;31.75;40.73
11678;BME280;5895;41.950;24.372;2022-07-30T12:03:11;86997.91;;;31.87;37.80
11678;BME280;5895;41.950;24.372;2022-07-30T12:05:39;87000.78;;;31.94;41.25
11678;BME280;5895;41.950;24.372;2022-07-30T12:08:07;86991.50;;;32.07;40.71
11678;BME280;5895;41.950;24.372;2022-07-30T12:10:35;86982.31;;;32.08;41.00
11678;BME280;5895;41.950;24.372;2022-07-30T12:13:09;86991.66;;;32.15;39.14
11678;BME280;5895;41.950;24.372;2022-07-30T12:15:38;86992.63;;;32.06;40.84
11678;BME280;5895;41.950;24.372;2022-07-30T12:18:06;86990.97;;;31.86;40.61
11678;BME280;5895;41.950;24.372;2022-07-30T12:20:38;86990.38;;;31.77;39.52
11678;BME280;5895;41.950;24.372;2022-07-30T12:23:09;87001.00;;;31.73;38.48
11678;BME280;5895;41.950;24.372;2022-07-30T12:25:38;86994.16;;;31.76;40.60
11678;BME280;5895;41.950;24.372;2022-07-30T12:28:07;86983.25;;;31.69;40.23
11678;BME280;5895;41.950;24.372;2022-07-30T12:30:37;86991.81;;;31.74;39.30
11678;BME280;5895;41.950;24.372;2022-07-30T12:33:05;86974.53;;;31.72;40.30
11678;BME280;5895;41.950;24.372;2022-07-30T12:35:45;86979.94;;;31.59;35.45
11678;BME280;5895;41.950;24.372;2022-07-30T12:38:14;86975.91;;;31.66;40.00
11678;BME280;5895;41.950;24.372;2022-07-30T12:40:53;86972.19;;;31.54;36.13
11678;BME280;5895;41.950;24.372;2022-07-30T12:43:43;86974.41;;;31.52;35.62
11678;BME280;5895;41.950;24.372;2022-07-30T12:46:14;86977.34;;;31.47;40.18
11678;BME280;5895;41.950;24.372;2022-07-30T12:48:54;86962.13;;;31.51;36.46
11678;BME280;5895;41.950;24.372;2022-07-30T12:51:26;86965.16;;;31.50;39.57
11678;BME280;5895;41.950;24.372;2022-07-30T12:53:55;86963.25;;;31.50;39.92
11678;BME280;5895;41.950;24.372;2022-07-30T12:56:25;86964.81;;;31.67;39.70
11678;BME280;5895;41.950;24.372;2022-07-30T12:58:55;86958.41;;;31.88;39.46
11678;BME280;5895;41.950;24.372;2022-07-30T13:01:47;86949.78;;;31.94;34.75
11678;BME280;5895;41.950;24.372;2022-07-30T13:04:17;86949.06;;;31.97;39.46
11678;BME280;5895;41.950;24.372;2022-07-30T13:07:05;86942.91;;;31.65;36.14
11678;BME280;5895;41.950;24.372;2022-07-30T13:09:33;86936.97;;;31.56;40.07
11678;BME280;5895;41.950;24.372;2022-07-30T13:12:01;86938.25;;;31.46;39.78
11678;BME280;5895;41.950;24.372;2022-07-30T13:14:29;86920.09;;;31.55;39.94
11678;BME280;5895;41.950;24.372;2022-07-30T13:16:57;86925.19;;;31.45;40.00
11678;BME280;5895;41.950;24.372;2022-07-30T13:19:25;86908.97;;;31.10;40.18
11678;BME280;5895;41.950;24.372;2022-07-30T13:21:54;86920.28;;;30.75;40.06